sensor_id;sensor_type;location;lat;lon;timestamp;pressure;altitude;pressure_sealevel;temperature;humidity
22743;BME280;11538;48.884;8.696;2023-09-30T00:02:04;99602.81;;;18.99;97.08
22743;BME280;11538;48.884;8.696;2023-09-30T00:04:31;99591.03;;;18.99;97.23
22743;BME280;11538;48.884;8.696;2023-09-30T00:06:58;99604.41;;;19.00;97.23
22743;BME280;11538;48.884;8.696;2023-09-30T00:09:26;99607.84;;;18.97;95.96
22743;BME280;11538;48.884;8.696;2023-09-30T00:11:53;99610.91;;;18.96;94.60
22743;BME280;11538;48.884;8.696;2023-09-30T00:14:22;99612.38;;;18.93;92.43
22743;BME280;11538;48.884;8.696;2023-09-30T00:16:49;99601.38;;;18.93;90.29
22743;BME280;11538;48.884;8.696;2023-09-30T00:19:17;99604.13;;;18.93;88.63
22743;BME280;11538;48.884;8.696;2023-09-30T00:21:45;99599.31;;;18.90;87.93
22743;BME280;11538;48.884;8.696;2023-09-30T00:24:11;99605.63;;;18.91;87.63
22743;BME280;11538;48.884;8.696;2023-09-30T00:26:38;99600.44;;;18.89;87.43
22743;BME280;11538;48.884;8.696;2023-09-30T00:29:05;99601.13;;;18.86;87.17
22743;BME280;11538;48.884;8.696;2023-09-30T00:31:32;99601.59;;;18.88;86.55
22743;BME280;11538;48.884;8.696;2023-09-30T00:34:00;99607.44;;;18.87;86.38
22743;BME280;11538;48.884;8.696;2023-09-30T00:36:27;99610.84;;;18.83;86.26
22743;BME280;11538;48.884;8.696;2023-09-30T00:38:54;99615.88;;;18.81;86.58
22743;BME280;11538;48.884;8.696;2023-09-30T00:41:22;99608.41;;;18.82;86.75
22743;BME280;11538;48.884;8.696;2023-09-30T00:43:49;99611.38;;;18.77;86.77
22743;BME280;11538;48.884;8.696;2023-09-30T00:46:29;99614.47;;;18.75;86.72
22743;BME280;11538;48.884;8.696;2023-09-30T00:48:59;99614.47;;;18.75;86.52
22743;BME280;11538;48.884;8.696;2023-09-30T00:51:27;99615.47;;;18.70;87.24
22743;BME280;11538;48.884;8.696;2023-09-30T00:53:58;99621.97;;;18.66;88.17
22743;BME280;11538;48.884;8.696;2023-09-30T00:56:29;99622.91;;;18.70;87.75
22743;BME280;11538;48.884;8.696;2023-09-30T00:58:57;99618.69;;;18.73;87.51
22743;BME280;11538;48.884;8.696;2023-09-30T01:01:25;99619.50;;;18.73;87.38
22743;BME280;11538;48.884;8.696;2023-09-30T01:03:53;99612.84;;;18.74;87.28
22743;BME280;11538;48.884;8.696;2023-09-30T01:06:21;99610.56;;;18.76;87.21
22743;BME280;11538;48.884;8.696;2023-09-30T01:08:49;99602.84;;;18.69;87.94
22743;BME280;11538;48.884;8.696;2023-09-30T01:11:16;99600.66;;;18.63;88.61
22743;BME280;11538;48.884;8.696;2023-09-30T01:13:43;99606.16;;;18.63;89.39
22743;BME280;11538;48.884;8.696;2023-09-30T01:16:20;99607.75;;;18.64;90.06
22743;BME280;11538;48.884;8.696;2023-09-30T01:18:47;99609.03;;;18.66;90.08
22743;BME280;11538;48.884;8.696;2023-09-30T01:21:14;99606.28;;;18.66;89.99
22743;BME280;11538;48.884;8.696;2023-09-30T01:23:41;99612.13;;;18.65;91.13
22743;BME280;11538;48.884;8.696;2023-09-30T01:26:12;99614.72;;;18.61;91.93
22743;BME280;11538;48.884;8.696;2023-09-30T01:28:40;99606.34;;;18.58;92.72
22743;BME280;11538;48.884;8.696;2023-09-30T01:31:07;99608.13;;;18.53;93.05
22743;BME280;11538;48.884;8.696;2023-09-30T01:33:34;99617.34;;;18.58;93.15
22743;BME280;11538;48.884;8.696;2023-09-30T01:36:02;99616.19;;;18.59;93.19
22743;BME280;11538;48.884;8.696;2023-09-30T01:38:29;99608.91;;;18.63;92.99
22743;BME280;11538;48.884;8.696;2023-09-30T01:40:55;99601.44;;;18.63;92.83
22743;BME280;11538;48.884;8.696;2023-09-30T01:43:27;99602.00;;;18.56;93.11
22743;BME280;11538;48.884;8.696;2023-09-30T01:45:54;99604.88;;;18.60;93.29
22743;BME280;11538;48.884;8.696;2023-09-30T01:48:21;99607.34;;;18.53;92.36
22743;BME280;11538;48.884;8.696;2023-09-30T01:50:49;99615.63;;;18.44;93.50
22743;BME280;11538;48.884;8.696;2023-09-30T01:53:16;99614.66;;;18.40;93.79
22743;BME280;11538;48.884;8.696;2023-09-30T01:55:43;99606.16;;;18.33;94.75
22743;BME280;11538;48.884;8.696;2023-09-30T01:58:11;99609.06;;;18.36;95.04
22743;BME280;11538;48.884;8.696;2023-09-30T02:00:38;99618.03;;;18.46;94.54
22743;BME280;11538;48.884;8.696;2023-09-30T02:03:05;99619.97;;;18.45;93.73
22743;BME280;11538;48.884;8.696;2023-09-30T02:05:32;99628.09;;;18.41;93.81
22743;BME280;11538;48.884;8.696;2023-09-30T02:07:59;99632.09;;;18.44;93.27
22743;BME280;11538;48.884;8.696;2023-09-30T02:10:28;99631.78;;;18.46;91.81
22743;BME280;11538;48.884;8.696;2023-09-30T02:12:55;99642.13;;;18.40;90.62
22743;BME280;11538;48.884;8.696;2023-09-30T02:15:22;99638.31;;;18.32;90.76
22743;BME280;11538;48.884;8.696;2023-09-30T02:17:49;99631.69;;;18.33;90.27
22743;BME280;11538;48.884;8.696;2023-09-30T02:20:16;99630.34;;;18.39;89.52
22743;BME280;11538;48.884;8.696;2023-09-30T02:22:46;99631.50;;;18.38;89.10
22743;BME280;11538;48.884;8.696;2023-09-30T02:25:14;99622.63;;;18.33;89.10
22743;BME280;11538;48.884;8.696;2023-09-30T02:27:42;99629.13;;;18.28;89.24
22743;BME280;11538;48.884;8.696;2023-09-30T02:30:10;99624.44;;;18.29;88.74
22743;BME280;11538;48.884;8.696;2023-09-30T02:32:39;99633.97;;;18.31;88.55
22743;BME280;11538;48.884;8.696;2023-09-30T02:35:08;99632.53;;;18.25;88.65
22743;BME280;11538;48.884;8.696;2023-09-30T02:37:38;99626.69;;;18.26;88.56
22743;BME280;11538;48.884;8.696;2023-09-30T02:40:08;99628.50;;;18.22;88.51
22743;BME280;11538;48.884;8.696;2023-09-30T02:42:39;99625.28;;;18.20;88.11
22743;BME280;11538;48.884;8.696;2023-09-30T02:45:08;99627.84;;;18.25;88.06
22743;BME280;11538;48.884;8.696;2023-09-30T02:47:38;99627.03;;;18.25;87.30
22743;BME280;11538;48.884;8.696;2023-09-30T02:50:07;99623.47;;;18.24;87.44
22743;BME280;11538;48.884;8.696;2023-09-30T02:52:35;99629.63;;;18.21;87.29
22743;BME280;11538;48.884;8.696;2023-09-30T02:55:03;99620.78;;;18.16;87.59
22743;BME280;11538;48.884;8.696;2023-09-30T02:57:30;99633.84;;;18.19;87.52
22743;BME280;11538;48.884;8.696;2023-09-30T02:59:58;99640.81;;;18.16;87.79
22743;BME280;11538;48.884;8.696;2023-09-30T03:02:28;99638.06;;;18.16;87.63
22743;BME280;11538;48.884;8.696;2023-09-30T03:04:55;99638.88;;;18.17;87.43
22743;BME280;11538;48.884;8.696;2023-09-30T03:07:25;99636.78;;;18.14;87.48
22743;BME280;11538;48.884;8.696;2023-09-30T03:09:52;99635.50;;;18.11;87.46
22743;BME280;11538;48.884;8.696;2023-09-30T03:12:20;99641.94;;;18.15;87.59
22743;BME280;11538;48.884;8.696;2023-09-30T03:14:47;99647.28;;;18.11;87.68
22743;BME280;11538;48.884;8.696;2023-09-30T03:17:14;99643.72;;;18.11;87.77
22743;BME280;11538;48.884;8.696;2023-09-30T03:19:41;99651.97;;;18.11;87.65
22743;BME280;11538;48.884;8.696;2023-09-30T03:22:08;99659.06;;;18.12;87.47
22743;BME280;11538;48.884;8.696;2023-09-30T03:24:39;99658.59;;;18.10;87.61
22743;BME280;11538;48.884;8.696;2023-09-30T03:27:07;99647.66;;;18.01;87.88
22743;BME280;11538;48.884;8.696;2023-09-30T03:29:38;99646.34;;;17.98;88.34
22743;BME280;11538;48.884;8.696;2023-09-30T03:32:05;99641.03;;;17.93;88.65
22743;BME280;11538;48.884;8.696;2023-09-30T03:34:34;99629.91;;;17.90;88.65
22743;BME280;11538;48.884;8.696;2023-09-30T03:37:03;99616.97;;;17.90;88.69
22743;BME280;11538;48.884;8.696;2023-09-30T03:39:33;99616.47;;;17.97;88.26
22743;BME280;11538;48.884;8.696;2023-09-30T03:42:00;99619.88;;;18.03;87.94
22743;BME280;11538;48.884;8.696;2023-09-30T03:44:28;99616.47;;;18.06;88.86
22743;BME280;11538;48.884;8.696;2023-09-30T03:46:55;99616.97;;;17.99;89.30
22743;BME280;11538;48.884;8.696;2023-09-30T03:49:24;99622.31;;;17.87;90.23
22743;BME280;11538;48.884;8.696;2023-09-30T03:51:51;99625.41;;;17.76;91.93
22743;BME280;11538;48.884;8.696;2023-09-30T03:54:19;99632.84;;;17.67;92.90
22743;BME280;11538;48.884;8.696;2023-09-30T03:56:47;99630.47;;;17.65;93.42
22743;BME280;11538;48.884;8.696;2023-09-30T03:59:14;99636.44;;;17.67;93.57
22743;BME280;11538;48.884;8.696;2023-09-30T04:01:42;99646.09;;;17.65;94.19
22743;BME280;11538;48.884;8.696;2023-09-30T04:04:11;99647.56;;;17.62;94.38
22743;BME280;11538;48.884;8.696;2023-09-30T04:06:38;99652.25;;;17.62;94.76
22743;BME280;11538;48.884;8.696;2023-09-30T04:09:06;99639.69;;;17.52;96.21
22743;BME280;11538;48.884;8.696;2023-09-30T04:11:39;99631.50;;;17.34;97.23
22743;BME280;11538;48.884;8.696;2023-09-30T04:14:07;99636.00;;;17.30;97.91
22743;BME280;11538;48.884;8.696;2023-09-30T04:16:35;99631.50;;;17.34;97.84
22743;BME280;11538;48.884;8.696;2023-09-30T04:19:04;99642.94;;;17.36;97.76
22743;BME280;11538;48.884;8.696;2023-09-30T04:21:34;99636.97;;;17.34;98.02
22743;BME280;11538;48.884;8.696;2023-09-30T04:24:01;99646.00;;;17.35;98.13
22743;BME280;11538;48.884;8.696;2023-09-30T04:26:28;99648.59;;;17.31;97.86
22743;BME280;11538;48.884;8.696;2023-09-30T04:28:55;99650.38;;;17.27;98.11
22743;BME280;11538;48.884;8.696;2023-09-30T04:31:23;99664.06;;;17.18;98.31
22743;BME280;11538;48.884;8.696;2023-09-30T04:33:51;99659.53;;;17.14;98.86
22743;BME280;11538;48.884;8.696;2023-09-30T04:36:19;99656.31;;;17.12;99.19
22743;BME280;11538;48.884;8.696;2023-09-30T04:38:46;99657.91;;;17.13;98.88
22743;BME280;11538;48.884;8.696;2023-09-30T04:41:14;99670.69;;;17.17;98.49
22743;BME280;11538;48.884;8.696;2023-09-30T04:43:42;99656.81;;;17.22;98.20
22743;BME280;11538;48.884;8.696;2023-09-30T04:46:10;99670.50;;;17.14;99.02
22743;BME280;11538;48.884;8.696;2023-09-30T04:48:40;99671.78;;;17.07;99.43
22743;BME280;11538;48.884;8.696;2023-09-30T04:51:08;99675.31;;;16.99;100.00
22743;BME280;11538;48.884;8.696;2023-09-30T04:53:37;99678.19;;;16.94;100.00
22743;BME280;11538;48.884;8.696;2023-09-30T04:56:04;99673.84;;;16.93;100.00
22743;BME280;11538;48.884;8.696;2023-09-30T04:58:31;99665.31;;;16.94;100.00
22743;BME280;11538;48.884;8.696;2023-09-30T05:00:58;99676.59;;;16.93;100.00
22743;BME280;11538;48.884;8.696;2023-09-30T05:03:25;99679.19;;;16.89;100.00
22743;BME280;11538;48.884;8.696;2023-09-30T05:05:53;99681.41;;;16.96;100.00
22743;BME280;11538;48.884;8.696;2023-09-30T05:08:24;99680.50;;;17.01;100.00
22743;BME280;11538;48.884;8.696;2023-09-30T05:10:51;99678.56;;;17.01;100.00
22743;BME280;11538;48.884;8.696;2023-09-30T05:13:22;99668.41;;;17.02;100.00
22743;BME280;11538;48.884;8.696;2023-09-30T05:15:51;99672.88;;;16.89;100.00
22743;BME280;11538;48.884;8.696;2023-09-30T05:18:18;99674.81;;;16.88;100.00
22743;BME280;11538;48.884;8.696;2023-09-30T05:20:45;99676.41;;;16.72;100.00
22743;BME280;11538;48.884;8.696;2023-09-30T05:23:13;99673.34;;;16.73;100.00
22743;BME280;11538;48.884;8.696;2023-09-30T05:25:41;99673.34;;;16.73;100.00
22743;BME280;11538;48.884;8.696;2023-09-30T05:28:09;99673.97;;;16.61;100.00
22743;BME280;11538;48.884;8.696;2023-09-30T05:30:38;99669.63;;;16.60;100.00
22743;BME280;11538;48.884;8.696;2023-09-30T05:33:07;99671.38;;;16.65;100.00
22743;BME280;11538;48.884;8.696;2023-09-30T05:35:34;99684.13;;;16.70;100.00
22743;BME280;11538;48.884;8.696;2023-09-30T05:38:01;99683.66;;;16.67;100.00
22743;BME280;11538;48.884;8.696;2023-09-30T05:40:31;99680.38;;;16.57;100.00
22743;BME280;11538;48.884;8.696;2023-09-30T05:42:59;99695.34;;;16.50;100.00
22743;BME280;11538;48.884;8.696;2023-09-30T05:45:33;99699.06;;;16.55;100.00
22743;BME280;11538;48.884;8.696;2023-09-30T05:48:03;99681.34;;;16.61;100.00
22743;BME280;11538;48.884;8.696;2023-09-30T05:50:35;99696.47;;;16.49;100.00
22743;BME280;11538;48.884;8.696;2023-09-30T05:53:03;99687.28;;;16.45;100.00
22743;BME280;11538;48.884;8.696;2023-09-30T05:55:31;99690.81;;;16.46;100.00
22743;BME280;11538;48.884;8.696;2023-09-30T05:57:59;99696.91;;;16.43;100.00
22743;BME280;11538;48.884;8.696;2023-09-30T06:00:28;99705.59;;;16.36;100.00
22743;BME280;11538;48.884;8.696;2023-09-30T06:02:58;99709.81;;;16.42;100.00
22743;BME280;11538;48.884;8.696;2023-09-30T06:05:27;99721.75;;;16.55;100.00
22743;BME280;11538;48.884;8.696;2023-09-30T06:07:57;99728.25;;;16.59;100.00
22743;BME280;11538;48.884;8.696;2023-09-30T06:10:24;99723.56;;;16.60;100.00
22743;BME280;11538;48.884;8.696;2023-09-30T06:12:53;99721.50;;;16.65;100.00
22743;BME280;11538;48.884;8.696;2023-09-30T06:15:25;99714.72;;;16.63;100.00
22743;BME280;11538;48.884;8.696;2023-09-30T06:17:56;99724.22;;;16.57;100.00
22743;BME280;11538;48.884;8.696;2023-09-30T06:20:24;99737.84;;;16.48;100.00
22743;BME280;11538;48.884;8.696;2023-09-30T06:22:54;99730.13;;;16.50;100.00
22743;BME280;11538;48.884;8.696;2023-09-30T06:25:22;99726.25;;;16.42;100.00
22743;BME280;11538;48.884;8.696;2023-09-30T06:27:52;99733.97;;;16.40;100.00
22743;BME280;11538;48.884;8.696;2023-09-30T06:30:20;99732.66;;;16.37;100.00
22743;BME280;11538;48.884;8.696;2023-09-30T06:32:48;99733.47;;;16.38;100.00
22743;BME280;11538;48.884;8.696;2023-09-30T06:35:15;99742.97;;;16.41;100.00
22743;BME280;11538;48.884;8.696;2023-09-30T06:37:42;99747.34;;;16.42;100.00
22743;BME280;11538;48.884;8.696;2023-09-30T06:40:12;99736.22;;;16.47;100.00
22743;BME280;11538;48.884;8.696;2023-09-30T06:42:40;99746.88;;;16.48;100.00
22743;BME280;11538;48.884;8.696;2023-09-30T06:45:08;99749.69;;;16.57;100.00
22743;BME280;11538;48.884;8.696;2023-09-30T06:47:38;99752.13;;;16.67;100.00
22743;BME280;11538;48.884;8.696;2023-09-30T06:50:10;99740.97;;;16.64;100.00
22743;BME280;11538;48.884;8.696;2023-09-30T06:52:41;99732.13;;;16.67;100.00
22743;BME280;11538;48.884;8.696;2023-09-30T06:55:09;99726.34;;;16.77;100.00
22743;BME280;11538;48.884;8.696;2023-09-30T06:57:38;99728.78;;;16.79;100.00
22743;BME280;11538;48.884;8.696;2023-09-30T07:00:12;99727.97;;;16.78;100.00
22743;BME280;11538;48.884;8.696;2023-09-30T07:02:41;99725.22;;;16.78;100.00
22743;BME280;11538;48.884;8.696;2023-09-30T07:05:13;99722.34;;;16.84;100.00
22743;BME280;11538;48.884;8.696;2023-09-30T07:07:41;99726.06;;;16.88;100.00
22743;BME280;11538;48.884;8.696;2023-09-30T07:10:13;99746.22;;;16.92;100.00
22743;BME280;11538;48.884;8.696;2023-09-30T07:12:41;99755.63;;;17.00;100.00
22743;BME280;11538;48.884;8.696;2023-09-30T07:15:09;99763.56;;;17.10;100.00
22743;BME280;11538;48.884;8.696;2023-09-30T07:17:38;99766.47;;;17.22;100.00
22743;BME280;11538;48.884;8.696;2023-09-30T07:20:11;99781.16;;;17.27;100.00
22743;BME280;11538;48.884;8.696;2023-09-30T07:22:38;99771.66;;;17.33;100.00
22743;BME280;11538;48.884;8.696;2023-09-30T07:25:08;99779.72;;;17.38;100.00
22743;BME280;11538;48.884;8.696;2023-09-30T07:27:36;99771.03;;;17.45;99.48
22743;BME280;11538;48.884;8.696;2023-09-30T07:30:03;99769.06;;;17.45;98.98
22743;BME280;11538;48.884;8.696;2023-09-30T07:32:33;99770.69;;;17.46;98.80
22743;BME280;11538;48.884;8.696;2023-09-30T07:35:00;99782.63;;;17.50;98.59
22743;BME280;11538;48.884;8.696;2023-09-30T07:37:27;99775.53;;;17.58;98.08
22743;BME280;11538;48.884;8.696;2023-09-30T07:39:54;99778.59;;;17.65;97.35
22743;BME280;11538;48.884;8.696;2023-09-30T07:42:21;99783.44;;;17.68;96.87
22743;BME280;11538;48.884;8.696;2023-09-30T07:44:50;99792.00;;;17.76;96.75
22743;BME280;11538;48.884;8.696;2023-09-30T07:47:17;99793.28;;;17.78;96.26
22743;BME280;11538;48.884;8.696;2023-09-30T07:49:44;99795.72;;;17.80;96.49
22743;BME280;11538;48.884;8.696;2023-09-30T07:52:11;99786.50;;;17.84;96.11
22743;BME280;11538;48.884;8.696;2023-09-30T07:54:41;99786.19;;;17.95;96.07
22743;BME280;11538;48.884;8.696;2023-09-30T07:57:08;99785.38;;;18.12;94.51
22743;BME280;11538;48.884;8.696;2023-09-30T07:59:35;99774.38;;;18.21;94.11
22743;BME280;11538;48.884;8.696;2023-09-30T08:02:02;99770.31;;;18.27;92.69
22743;BME280;11538;48.884;8.696;2023-09-30T08:04:31;99774.63;;;18.37;91.49
22743;BME280;11538;48.884;8.696;2023-09-30T08:06:58;99768.78;;;18.47;91.06
22743;BME280;11538;48.884;8.696;2023-09-30T08:09:25;99777.16;;;18.60;90.09
22743;BME280;11538;48.884;8.696;2023-09-30T08:11:55;99775.31;;;18.73;88.48
22743;BME280;11538;48.884;8.696;2023-09-30T08:14:23;99775.69;;;18.92;87.40
22743;BME280;11538;48.884;8.696;2023-09-30T08:16:50;99782.63;;;19.07;85.91
22743;BME280;11538;48.884;8.696;2023-09-30T08:19:18;99778.28;;;19.27;84.49
22743;BME280;11538;48.884;8.696;2023-09-30T08:21:47;99780.97;;;19.36;84.02
22743;BME280;11538;48.884;8.696;2023-09-30T08:24:15;99784.72;;;19.53;83.05
22743;BME280;11538;48.884;8.696;2023-09-30T08:26:42;99787.06;;;19.63;81.71
22743;BME280;11538;48.884;8.696;2023-09-30T08:29:09;99784.31;;;19.63;81.41
22743;BME280;11538;48.884;8.696;2023-09-30T08:31:36;99776.13;;;19.76;81.05
22743;BME280;11538;48.884;8.696;2023-09-30T08:34:04;99765.25;;;20.00;79.83
22743;BME280;11538;48.884;8.696;2023-09-30T08:36:30;99768.00;;;20.00;78.32
22743;BME280;11538;48.884;8.696;2023-09-30T08:38:58;99765.72;;;20.02;78.15
22743;BME280;11538;48.884;8.696;2023-09-30T08:41:32;99774.72;;;20.24;76.66
22743;BME280;11538;48.884;8.696;2023-09-30T08:44:03;99760.50;;;20.22;75.99
22743;BME280;11538;48.884;8.696;2023-09-30T08:46:34;99757.75;;;20.35;76.16
22743;BME280;11538;48.884;8.696;2023-09-30T08:49:04;99763.06;;;20.52;75.54
22743;BME280;11538;48.884;8.696;2023-09-30T08:51:33;99757.53;;;20.52;75.17
22743;BME280;11538;48.884;8.696;2023-09-30T08:54:00;99752.84;;;20.78;74.68
22743;BME280;11538;48.884;8.696;2023-09-30T08:56:32;99758.25;;;20.99;73.50
22743;BME280;11538;48.884;8.696;2023-09-30T08:59:03;99772.25;;;21.06;72.53
22743;BME280;11538;48.884;8.696;2023-09-30T09:01:31;99774.00;;;21.11;72.21
22743;BME280;11538;48.884;8.696;2023-09-30T09:03:58;99782.63;;;21.22;71.43
22743;BME280;11538;48.884;8.696;2023-09-30T09:06:26;99781.34;;;21.19;70.94
22743;BME280;11538;48.884;8.696;2023-09-30T09:08:53;99793.88;;;21.29;70.77
22743;BME280;11538;48.884;8.696;2023-09-30T09:11:24;99788.91;;;21.35;69.99
22743;BME280;11538;48.884;8.696;2023-09-30T09:13:54;99789.44;;;21.53;69.25
22743;BME280;11538;48.884;8.696;2023-09-30T09:16:27;99780.78;;;21.54;68.76
22743;BME280;11538;48.884;8.696;2023-09-30T09:18:57;99781.94;;;21.94;67.53
22743;BME280;11538;48.884;8.696;2023-09-30T09:21:31;99779.00;;;21.87;66.71
22743;BME280;11538;48.884;8.696;2023-09-30T09:24:02;99771.66;;;21.79;66.98
22743;BME280;11538;48.884;8.696;2023-09-30T09:26:31;99778.03;;;21.54;68.00
22743;BME280;11538;48.884;8.696;2023-09-30T09:29:04;99773.03;;;21.31;68.45
22743;BME280;11538;48.884;8.696;2023-09-30T09:31:35;99775.38;;;21.04;68.06
22743;BME280;11538;48.884;8.696;2023-09-30T09:34:13;99770.50;;;21.39;66.91
22743;BME280;11538;48.884;8.696;2023-09-30T09:36:45;99758.47;;;21.59;66.39
22743;BME280;11538;48.884;8.696;2023-09-30T09:39:14;99756.91;;;21.87;65.17
22743;BME280;11538;48.884;8.696;2023-09-30T09:41:53;99756.59;;;22.20;63.86
22743;BME280;11538;48.884;8.696;2023-09-30T09:44:23;99752.69;;;22.38;63.37
22743;BME280;11538;48.884;8.696;2023-09-30T09:46:53;99759.63;;;22.31;62.06
22743;BME280;11538;48.884;8.696;2023-09-30T09:49:21;99753.53;;;21.94;63.17
22743;BME280;11538;48.884;8.696;2023-09-30T09:51:50;99760.41;;;21.71;64.34
22743;BME280;11538;48.884;8.696;2023-09-30T09:54:18;99760.47;;;21.46;65.21
22743;BME280;11538;48.884;8.696;2023-09-30T09:56:49;99763.88;;;21.68;65.14
22743;BME280;11538;48.884;8.696;2023-09-30T09:59:16;99752.22;;;22.03;64.32
22743;BME280;11538;48.884;8.696;2023-09-30T10:01:43;99751.53;;;22.39;61.99
22743;BME280;11538;48.884;8.696;2023-09-30T10:04:12;99751.19;;;22.72;60.30
22743;BME280;11538;48.884;8.696;2023-09-30T10:06:46;99748.13;;;22.93;59.51
22743;BME280;11538;48.884;8.696;2023-09-30T10:09:23;99747.47;;;23.00;59.08
22743;BME280;11538;48.884;8.696;2023-09-30T10:12:01;99734.69;;;23.28;58.80
22743;BME280;11538;48.884;8.696;2023-09-30T10:14:32;99739.88;;;23.29;57.49
22743;BME280;11538;48.884;8.696;2023-09-30T10:17:00;99732.72;;;23.28;57.06
22743;BME280;11538;48.884;8.696;2023-09-30T10:19:28;99731.63;;;23.52;56.00
22743;BME280;11538;48.884;8.696;2023-09-30T10:24:44;99732.75;;;24.11;53.48
22743;BME280;11538;48.884;8.696;2023-09-30T10:35:46;99728.78;;;24.58;52.18
22743;BME280;11538;48.884;8.696;2023-09-30T10:40:56;99734.69;;;25.07;51.38
22743;BME280;11538;48.884;8.696;2023-09-30T10:43:32;99737.81;;;25.32;50.66
22743;BME280;11538;48.884;8.696;2023-09-30T10:46:00;99732.50;;;25.50;49.76
22743;BME280;11538;48.884;8.696;2023-09-30T10:50:59;99725.06;;;25.28;50.42
22743;BME280;11538;48.884;8.696;2023-09-30T10:53:31;99719.97;;;24.76;51.36
22743;BME280;11538;48.884;8.696;2023-09-30T10:56:00;99712.72;;;24.44;52.35
22743;BME280;11538;48.884;8.696;2023-09-30T10:58:49;99699.00;;;24.28;54.09
22743;BME280;11538;48.884;8.696;2023-09-30T11:01:19;99705.63;;;24.47;53.35
22743;BME280;11538;48.884;8.696;2023-09-30T11:03:47;99707.97;;;24.95;52.50
22743;BME280;11538;48.884;8.696;2023-09-30T11:06:20;99706.81;;;25.26;50.75
22743;BME280;11538;48.884;8.696;2023-09-30T11:08:57;99705.75;;;25.73;48.47
22743;BME280;11538;48.884;8.696;2023-09-30T11:11:45;99707.25;;;26.01;46.60
22743;BME280;11538;48.884;8.696;2023-09-30T11:14:27;99699.13;;;25.47;47.53
22743;BME280;11538;48.884;8.696;2023-09-30T11:17:01;99699.06;;;25.43;47.20
22743;BME280;11538;48.884;8.696;2023-09-30T11:19:37;99697.53;;;25.83;46.34
22743;BME280;11538;48.884;8.696;2023-09-30T11:22:04;99704.34;;;26.27;45.06
22743;BME280;11538;48.884;8.696;2023-09-30T11:24:36;99697.06;;;26.64;43.99
22743;BME280;11538;48.884;8.696;2023-09-30T11:27:03;99692.44;;;26.86;40.94
22743;BME280;11538;48.884;8.696;2023-09-30T11:29:31;99698.09;;;27.01;40.25
22743;BME280;11538;48.884;8.696;2023-09-30T11:31:58;99710.50;;;27.18;40.22
22743;BME280;11538;48.884;8.696;2023-09-30T11:34:35;99701.41;;;27.28;39.73
22743;BME280;11538;48.884;8.696;2023-09-30T11:37:05;99693.91;;;26.69;42.06
22743;BME280;11538;48.884;8.696;2023-09-30T11:39:33;99692.63;;;27.19;42.77
22743;BME280;11538;48.884;8.696;2023-09-30T11:42:00;99691.25;;;27.83;41.90
22743;BME280;11538;48.884;8.696;2023-09-30T11:44:28;99694.91;;;28.38;39.88
22743;BME280;11538;48.884;8.696;2023-09-30T11:47:01;99689.31;;;28.56;39.26
22743;BME280;11538;48.884;8.696;2023-09-30T11:49:33;99699.94;;;27.56;40.80
22743;BME280;11538;48.884;8.696;2023-09-30T11:52:10;99692.66;;;26.56;43.18
22743;BME280;11538;48.884;8.696;2023-09-30T11:54:44;99698.06;;;25.96;44.09
22743;BME280;11538;48.884;8.696;2023-09-30T11:57:16;99705.50;;;25.47;45.15
22743;BME280;11538;48.884;8.696;2023-09-30T11:59:45;99709.50;;;25.19;46.09
22743;BME280;11538;48.884;8.696;2023-09-30T12:02:13;99702.75;;;25.20;46.91
22743;BME280;11538;48.884;8.696;2023-09-30T12:04:43;99703.88;;;25.16;47.25
22743;BME280;11538;48.884;8.696;2023-09-30T12:07:12;99702.25;;;24.84;47.61
22743;BME280;11538;48.884;8.696;2023-09-30T12:09:39;99696.03;;;24.67;48.16
22743;BME280;11538;48.884;8.696;2023-09-30T12:12:08;99691.94;;;25.11;47.17
22743;BME280;11538;48.884;8.696;2023-09-30T12:14:40;99697.19;;;26.26;44.44
22743;BME280;11538;48.884;8.696;2023-09-30T12:17:07;99690.91;;;26.96;42.38
22743;BME280;11538;48.884;8.696;2023-09-30T12:19:40;99696.00;;;27.68;40.71
22743;BME280;11538;48.884;8.696;2023-09-30T12:22:08;99691.38;;;27.06;41.35
22743;BME280;11538;48.884;8.696;2023-09-30T12:24:36;99696.00;;;25.90;43.76
22743;BME280;11538;48.884;8.696;2023-09-30T12:27:03;99701.59;;;25.21;45.70
22743;BME280;11538;48.884;8.696;2023-09-30T12:29:31;99695.38;;;25.01;46.81
22743;BME280;11538;48.884;8.696;2023-09-30T12:31:59;99696.25;;;25.09;47.15
22743;BME280;11538;48.884;8.696;2023-09-30T12:34:28;99695.28;;;26.41;44.14
22743;BME280;11538;48.884;8.696;2023-09-30T12:36:55;99691.50;;;27.38;42.26
22743;BME280;11538;48.884;8.696;2023-09-30T12:39:24;99693.28;;;28.08;40.40
22743;BME280;11538;48.884;8.696;2023-09-30T12:41:53;99693.28;;;28.48;39.11
22743;BME280;11538;48.884;8.696;2023-09-30T12:44:20;99691.28;;;28.45;39.17
22743;BME280;11538;48.884;8.696;2023-09-30T12:46:47;99698.47;;;28.57;38.49
22743;BME280;11538;48.884;8.696;2023-09-30T12:49:15;99702.34;;;27.62;40.45
22743;BME280;11538;48.884;8.696;2023-09-30T12:51:42;99696.88;;;26.42;42.71
22743;BME280;11538;48.884;8.696;2023-09-30T12:54:09;99693.63;;;25.88;43.78
22743;BME280;11538;48.884;8.696;2023-09-30T12:56:37;99696.22;;;25.70;43.94
22743;BME280;11538;48.884;8.696;2023-09-30T12:59:04;99701.97;;;25.54;45.42
22743;BME280;11538;48.884;8.696;2023-09-30T13:01:31;99685.06;;;26.53;42.14
22743;BME280;11538;48.884;8.696;2023-09-30T13:04:02;99677.34;;;26.84;41.95
22743;BME280;11538;48.884;8.696;2023-09-30T13:06:30;99663.63;;;26.61;41.83
22743;BME280;11538;48.884;8.696;2023-09-30T13:08:59;99655.16;;;26.42;42.04
22743;BME280;11538;48.884;8.696;2023-09-30T13:11:27;99656.66;;;26.85;41.44
22743;BME280;11538;48.884;8.696;2023-09-30T13:13:54;99654.47;;;27.27;40.70
22743;BME280;11538;48.884;8.696;2023-09-30T13:16:21;99653.00;;;27.73;39.97
22743;BME280;11538;48.884;8.696;2023-09-30T13:18:49;99651.03;;;27.88;39.42
22743;BME280;11538;48.884;8.696;2023-09-30T13:21:20;99646.91;;;27.24;40.30
22743;BME280;11538;48.884;8.696;2023-09-30T13:23:47;99651.69;;;26.56;41.93